sensor_id;sensor_type;location;lat;lon;timestamp;P1;durP1;ratioP1;P2;durP2;ratioP2
2061;SDS011;11070;51.336;12.340;2022-11-15T00:00:52;22.02;;;15.20;;
2061;SDS011;11070;51.336;12.340;2022-11-15T00:03:20;20.98;;;14.95;;
2061;SDS011;11070;51.336;12.340;2022-11-15T00:05:51;20.80;;;14.68;;
2061;SDS011;11070;51.336;12.340;2022-11-15T00:08:17;22.42;;;15.07;;
2061;SDS011;11070;51.336;12.340;2022-11-15T00:10:46;22.30;;;15.10;;
2061;SDS011;11070;51.336;12.340;2022-11-15T00:13:22;24.42;;;15.55;;
2061;SDS011;11070;51.336;12.340;2022-11-15T00:15:48;22.07;;;15.67;;
2061;SDS011;11070;51.336;12.340;2022-11-15T00:18:14;23.33;;;15.27;;
2061;SDS011;11070;51.336;12.340;2022-11-15T00:20:41;21.30;;;15.10;;
2061;SDS011;11070;51.336;12.340;2022-11-15T00:23:07;21.48;;;14.85;;
2061;SDS011;11070;51.336;12.340;2022-11-15T00:25:33;21.20;;;15.23;;
2061;SDS011;11070;51.336;12.340;2022-11-15T00:27:59;21.00;;;15.37;;
2061;SDS011;11070;51.336;12.340;2022-11-15T00:30:25;21.02;;;15.52;;
2061;SDS011;11070;51.336;12.340;2022-11-15T00:32:52;20.73;;;14.45;;
2061;SDS011;11070;51.336;12.340;2022-11-15T00:35:18;21.27;;;15.10;;
2061;SDS011;11070;51.336;12.340;2022-11-15T00:37:44;22.85;;;16.63;;
2061;SDS011;11070;51.336;12.340;2022-11-15T00:40:11;22.42;;;15.18;;
2061;SDS011;11070;51.336;12.340;2022-11-15T00:42:40;21.02;;;14.48;;
2061;SDS011;11070;51.336;12.340;2022-11-15T00:45:06;19.85;;;14.45;;
2061;SDS011;11070;51.336;12.340;2022-11-15T00:47:32;21.70;;;14.20;;
2061;SDS011;11070;51.336;12.340;2022-11-15T00:49:58;20.33;;;15.20;;
2061;SDS011;11070;51.336;12.340;2022-11-15T00:52:23;20.20;;;14.30;;
2061;SDS011;11070;51.336;12.340;2022-11-15T00:54:49;19.70;;;15.47;;
2061;SDS011;11070;51.336;12.340;2022-11-15T00:57:15;21.37;;;14.80;;
2061;SDS011;11070;51.336;12.340;2022-11-15T00:59:41;18.50;;;13.57;;
2061;SDS011;11070;51.336;12.340;2022-11-15T01:02:06;22.90;;;14.37;;
2061;SDS011;11070;51.336;12.340;2022-11-15T01:04:32;18.90;;;13.70;;
2061;SDS011;11070;51.336;12.340;2022-11-15T01:06:58;19.20;;;14.60;;
2061;SDS011;11070;51.336;12.340;2022-11-15T01:09:24;22.50;;;14.37;;
2061;SDS011;11070;51.336;12.340;2022-11-15T01:11:49;21.13;;;15.03;;
2061;SDS011;11070;51.336;12.340;2022-11-15T01:14:15;17.40;;;13.47;;
2061;SDS011;11070;51.336;12.340;2022-11-15T01:16:41;18.80;;;13.70;;
2061;SDS011;11070;51.336;12.340;2022-11-15T01:19:07;19.60;;;13.90;;
2061;SDS011;11070;51.336;12.340;2022-11-15T01:21:32;22.17;;;14.07;;
2061;SDS011;11070;51.336;12.340;2022-11-15T01:23:58;22.20;;;14.53;;
2061;SDS011;11070;51.336;12.340;2022-11-15T01:26:24;18.67;;;13.98;;
2061;SDS011;11070;51.336;12.340;2022-11-15T01:28:50;20.33;;;14.20;;
2061;SDS011;11070;51.336;12.340;2022-11-15T01:31:17;19.40;;;14.10;;
2061;SDS011;11070;51.336;12.340;2022-11-15T01:33:45;20.10;;;14.30;;
2061;SDS011;11070;51.336;12.340;2022-11-15T01:36:12;19.38;;;13.65;;
2061;SDS011;11070;51.336;12.340;2022-11-15T01:38:40;19.35;;;14.43;;
2061;SDS011;11070;51.336;12.340;2022-11-15T01:41:06;18.83;;;14.50;;
2061;SDS011;11070;51.336;12.340;2022-11-15T01:43:38;18.80;;;13.32;;
2061;SDS011;11070;51.336;12.340;2022-11-15T01:46:22;19.60;;;13.95;;
2061;SDS011;11070;51.336;12.340;2022-11-15T01:49:03;22.35;;;14.45;;
2061;SDS011;11070;51.336;12.340;2022-11-15T01:51:36;20.70;;;13.93;;
2061;SDS011;11070;51.336;12.340;2022-11-15T01:54:08;19.75;;;13.55;;
2061;SDS011;11070;51.336;12.340;2022-11-15T01:56:49;18.15;;;13.73;;
2061;SDS011;11070;51.336;12.340;2022-11-15T01:59:21;19.98;;;14.13;;
2061;SDS011;11070;51.336;12.340;2022-11-15T02:01:47;19.77;;;13.48;;
2061;SDS011;11070;51.336;12.340;2022-11-15T02:04:15;18.30;;;13.73;;
2061;SDS011;11070;51.336;12.340;2022-11-15T02:06:46;17.80;;;13.10;;
2061;SDS011;11070;51.336;12.340;2022-11-15T02:09:13;17.80;;;13.15;;
2061;SDS011;11070;51.336;12.340;2022-11-15T02:11:40;20.95;;;14.02;;
2061;SDS011;11070;51.336;12.340;2022-11-15T02:14:06;19.65;;;13.65;;
2061;SDS011;11070;51.336;12.340;2022-11-15T02:25:01;18.63;;;13.40;;
2061;SDS011;11070;51.336;12.340;2022-11-15T02:27:36;20.48;;;13.88;;
2061;SDS011;11070;51.336;12.340;2022-11-15T02:35:44;21.42;;;13.00;;
2061;SDS011;11070;51.336;12.340;2022-11-15T02:41:01;17.83;;;12.30;;
2061;SDS011;11070;51.336;12.340;2022-11-15T02:43:47;17.58;;;13.10;;
2061;SDS011;11070;51.336;12.340;2022-11-15T02:46:26;19.95;;;14.00;;
2061;SDS011;11070;51.336;12.340;2022-11-15T02:49:24;17.27;;;12.65;;
2061;SDS011;11070;51.336;12.340;2022-11-15T02:51:54;18.08;;;13.80;;
2061;SDS011;11070;51.336;12.340;2022-11-15T02:54:25;17.77;;;13.38;;
2061;SDS011;11070;51.336;12.340;2022-11-15T02:56:54;20.08;;;13.00;;
2061;SDS011;11070;51.336;12.340;2022-11-15T02:59:42;17.58;;;12.80;;
2061;SDS011;11070;51.336;12.340;2022-11-15T03:05:04;16.45;;;12.50;;
2061;SDS011;11070;51.336;12.340;2022-11-15T03:13:53;18.73;;;13.73;;
2061;SDS011;11070;51.336;12.340;2022-11-15T03:19:34;18.88;;;13.43;;
2061;SDS011;11070;51.336;12.340;2022-11-15T03:22:02;17.58;;;12.30;;
2061;SDS011;11070;51.336;12.340;2022-11-15T03:24:31;18.98;;;12.48;;
2061;SDS011;11070;51.336;12.340;2022-11-15T03:27:01;18.10;;;12.00;;
2061;SDS011;11070;51.336;12.340;2022-11-15T03:29:31;17.67;;;12.27;;
2061;SDS011;11070;51.336;12.340;2022-11-15T03:32:05;16.30;;;12.20;;
2061;SDS011;11070;51.336;12.340;2022-11-15T03:37:24;19.52;;;13.38;;
2061;SDS011;11070;51.336;12.340;2022-11-15T03:40:00;18.05;;;13.05;;
2061;SDS011;11070;51.336;12.340;2022-11-15T03:42:32;16.63;;;11.80;;
2061;SDS011;11070;51.336;12.340;2022-11-15T03:45:18;19.90;;;12.85;;
2061;SDS011;11070;51.336;12.340;2022-11-15T03:47:52;18.05;;;12.90;;
2061;SDS011;11070;51.336;12.340;2022-11-15T03:50:27;16.92;;;12.07;;
2061;SDS011;11070;51.336;12.340;2022-11-15T03:52:54;16.92;;;12.60;;
2061;SDS011;11070;51.336;12.340;2022-11-15T03:55:21;16.38;;;12.40;;
2061;SDS011;11070;51.336;12.340;2022-11-15T03:57:49;17.75;;;13.20;;
2061;SDS011;11070;51.336;12.340;2022-11-15T04:00:18;16.58;;;12.40;;
2061;SDS011;11070;51.336;12.340;2022-11-15T04:02:44;18.83;;;11.70;;
2061;SDS011;11070;51.336;12.340;2022-11-15T04:05:09;16.33;;;12.10;;
2061;SDS011;11070;51.336;12.340;2022-11-15T04:07:35;17.87;;;11.77;;
2061;SDS011;11070;51.336;12.340;2022-11-15T04:10:01;15.10;;;11.00;;
2061;SDS011;11070;51.336;12.340;2022-11-15T04:12:28;16.40;;;11.73;;
2061;SDS011;11070;51.336;12.340;2022-11-15T04:15:02;18.85;;;12.45;;
2061;SDS011;11070;51.336;12.340;2022-11-15T04:17:33;16.45;;;11.65;;
2061;SDS011;11070;51.336;12.340;2022-11-15T04:20:06;17.50;;;12.20;;
2061;SDS011;11070;51.336;12.340;2022-11-15T04:22:56;14.57;;;10.60;;
2061;SDS011;11070;51.336;12.340;2022-11-15T04:25:42;16.42;;;11.68;;
2061;SDS011;11070;51.336;12.340;2022-11-15T04:28:08;14.38;;;10.73;;
2061;SDS011;11070;51.336;12.340;2022-11-15T04:30:35;19.10;;;11.63;;
2061;SDS011;11070;51.336;12.340;2022-11-15T04:33:01;16.40;;;11.87;;
2061;SDS011;11070;51.336;12.340;2022-11-15T04:35:26;16.30;;;11.67;;
2061;SDS011;11070;51.336;12.340;2022-11-15T04:37:52;17.07;;;11.60;;
2061;SDS011;11070;51.336;12.340;2022-11-15T04:40:19;15.98;;;11.57;;
2061;SDS011;11070;51.336;12.340;2022-11-15T04:42:44;15.77;;;10.97;;
2061;SDS011;11070;51.336;12.340;2022-11-15T04:45:10;16.13;;;11.23;;
2061;SDS011;11070;51.336;12.340;2022-11-15T04:47:36;12.73;;;10.43;;
2061;SDS011;11070;51.336;12.340;2022-11-15T04:50:02;15.60;;;11.02;;
2061;SDS011;11070;51.336;12.340;2022-11-15T04:52:28;15.80;;;12.05;;
2061;SDS011;11070;51.336;12.340;2022-11-15T04:54:54;15.60;;;11.30;;
2061;SDS011;11070;51.336;12.340;2022-11-15T04:57:19;17.87;;;12.77;;
2061;SDS011;11070;51.336;12.340;2022-11-15T04:59:45;15.60;;;12.10;;
2061;SDS011;11070;51.336;12.340;2022-11-15T05:02:11;19.58;;;12.38;;
2061;SDS011;11070;51.336;12.340;2022-11-15T05:04:37;15.87;;;11.63;;
2061;SDS011;11070;51.336;12.340;2022-11-15T05:07:05;16.48;;;11.20;;
2061;SDS011;11070;51.336;12.340;2022-11-15T05:09:31;16.63;;;11.33;;
2061;SDS011;11070;51.336;12.340;2022-11-15T05:11:56;16.30;;;11.50;;
2061;SDS011;11070;51.336;12.340;2022-11-15T05:14:22;14.97;;;10.80;;
2061;SDS011;11070;51.336;12.340;2022-11-15T05:16:48;17.43;;;12.20;;
2061;SDS011;11070;51.336;12.340;2022-11-15T05:19:14;21.10;;;12.30;;
2061;SDS011;11070;51.336;12.340;2022-11-15T05:21:39;17.93;;;11.80;;
2061;SDS011;11070;51.336;12.340;2022-11-15T05:24:05;16.37;;;12.17;;
2061;SDS011;11070;51.336;12.340;2022-11-15T05:26:31;18.10;;;12.20;;
2061;SDS011;11070;51.336;12.340;2022-11-15T05:28:58;18.40;;;12.90;;
2061;SDS011;11070;51.336;12.340;2022-11-15T05:31:24;16.13;;;11.25;;
2061;SDS011;11070;51.336;12.340;2022-11-15T05:33:51;21.23;;;13.15;;
2061;SDS011;11070;51.336;12.340;2022-11-15T05:36:24;16.83;;;11.93;;
2061;SDS011;11070;51.336;12.340;2022-11-15T05:38:56;17.60;;;11.98;;
2061;SDS011;11070;51.336;12.340;2022-11-15T05:41:24;16.70;;;12.50;;
2061;SDS011;11070;51.336;12.340;2022-11-15T05:44:17;18.20;;;13.65;;
2061;SDS011;11070;51.336;12.340;2022-11-15T05:46:45;17.48;;;12.73;;
2061;SDS011;11070;51.336;12.340;2022-11-15T05:49:13;16.75;;;12.25;;
2061;SDS011;11070;51.336;12.340;2022-11-15T05:51:43;17.42;;;12.90;;
2061;SDS011;11070;51.336;12.340;2022-11-15T05:54:11;18.40;;;12.07;;
2061;SDS011;11070;51.336;12.340;2022-11-15T05:56:37;18.60;;;12.75;;
2061;SDS011;11070;51.336;12.340;2022-11-15T05:59:03;20.08;;;14.00;;
2061;SDS011;11070;51.336;12.340;2022-11-15T06:01:29;17.73;;;12.77;;
2061;SDS011;11070;51.336;12.340;2022-11-15T06:03:55;20.95;;;12.75;;
2061;SDS011;11070;51.336;12.340;2022-11-15T06:06:21;20.10;;;13.00;;
2061;SDS011;11070;51.336;12.340;2022-11-15T06:08:47;16.95;;;12.98;;
2061;SDS011;11070;51.336;12.340;2022-11-15T06:11:13;16.90;;;12.80;;
2061;SDS011;11070;51.336;12.340;2022-11-15T06:13:38;18.00;;;12.10;;
2061;SDS011;11070;51.336;12.340;2022-11-15T06:16:04;20.07;;;14.30;;
2061;SDS011;11070;51.336;12.340;2022-11-15T06:18:34;18.88;;;12.25;;
2061;SDS011;11070;51.336;12.340;2022-11-15T06:21:00;16.42;;;12.60;;
2061;SDS011;11070;51.336;12.340;2022-11-15T06:23:26;18.50;;;13.13;;
2061;SDS011;11070;51.336;12.340;2022-11-15T06:25:53;20.15;;;13.23;;
2061;SDS011;11070;51.336;12.340;2022-11-15T06:28:19;18.80;;;14.20;;
2061;SDS011;11070;51.336;12.340;2022-11-15T06:30:44;18.93;;;14.33;;
2061;SDS011;11070;51.336;12.340;2022-11-15T06:33:10;17.50;;;12.70;;
2061;SDS011;11070;51.336;12.340;2022-11-15T06:35:36;20.10;;;13.70;;
2061;SDS011;11070;51.336;12.340;2022-11-15T06:38:06;17.73;;;12.53;;
2061;SDS011;11070;51.336;12.340;2022-11-15T06:40:36;23.00;;;13.85;;
2061;SDS011;11070;51.336;12.340;2022-11-15T06:43:04;17.58;;;13.43;;
2061;SDS011;11070;51.336;12.340;2022-11-15T06:45:30;17.48;;;13.50;;
2061;SDS011;11070;51.336;12.340;2022-11-15T06:47:57;17.08;;;13.00;;
2061;SDS011;11070;51.336;12.340;2022-11-15T06:50:22;17.52;;;12.95;;
2061;SDS011;11070;51.336;12.340;2022-11-15T06:52:49;16.00;;;11.80;;
2061;SDS011;11070;51.336;12.340;2022-11-15T06:55:14;17.40;;;12.23;;
2061;SDS011;11070;51.336;12.340;2022-11-15T06:57:47;13.80;;;10.93;;
2061;SDS011;11070;51.336;12.340;2022-11-15T07:00:14;16.50;;;11.82;;
2061;SDS011;11070;51.336;12.340;2022-11-15T07:02:41;14.98;;;10.35;;
2061;SDS011;11070;51.336;12.340;2022-11-15T07:05:07;13.85;;;10.75;;
2061;SDS011;11070;51.336;12.340;2022-11-15T07:07:33;15.53;;;11.10;;
2061;SDS011;11070;51.336;12.340;2022-11-15T07:09:59;12.82;;;10.30;;
2061;SDS011;11070;51.336;12.340;2022-11-15T07:12:25;14.10;;;10.88;;
2061;SDS011;11070;51.336;12.340;2022-11-15T07:14:51;12.43;;;10.90;;
2061;SDS011;11070;51.336;12.340;2022-11-15T07:17:17;20.90;;;11.77;;
2061;SDS011;11070;51.336;12.340;2022-11-15T07:19:43;13.77;;;10.30;;
2061;SDS011;11070;51.336;12.340;2022-11-15T07:22:08;14.90;;;9.67;;
2061;SDS011;11070;51.336;12.340;2022-11-15T07:24:34;12.70;;;9.53;;
2061;SDS011;11070;51.336;12.340;2022-11-15T07:27:03;11.15;;;8.85;;
2061;SDS011;11070;51.336;12.340;2022-11-15T07:29:30;10.88;;;9.10;;
2061;SDS011;11070;51.336;12.340;2022-11-15T07:31:59;11.20;;;9.67;;
2061;SDS011;11070;51.336;12.340;2022-11-15T07:34:28;10.98;;;8.60;;
2061;SDS011;11070;51.336;12.340;2022-11-15T07:36:54;13.10;;;10.20;;
2061;SDS011;11070;51.336;12.340;2022-11-15T07:39:20;14.88;;;9.25;;
2061;SDS011;11070;51.336;12.340;2022-11-15T07:41:46;9.87;;;8.77;;
2061;SDS011;11070;51.336;12.340;2022-11-15T07:44:13;10.77;;;8.25;;
2061;SDS011;11070;51.336;12.340;2022-11-15T07:46:40;10.67;;;8.73;;
2061;SDS011;11070;51.336;12.340;2022-11-15T07:49:12;11.85;;;9.50;;
2061;SDS011;11070;51.336;12.340;2022-11-15T07:51:38;11.75;;;9.00;;
2061;SDS011;11070;51.336;12.340;2022-11-15T07:56:55;12.10;;;8.32;;
2061;SDS011;11070;51.336;12.340;2022-11-15T07:59:24;9.40;;;8.10;;
2061;SDS011;11070;51.336;12.340;2022-11-15T08:01:50;9.73;;;8.73;;
2061;SDS011;11070;51.336;12.340;2022-11-15T08:04:16;10.40;;;8.70;;
2061;SDS011;11070;51.336;12.340;2022-11-15T08:06:42;9.10;;;8.20;;
2061;SDS011;11070;51.336;12.340;2022-11-15T08:09:28;9.60;;;7.93;;
2061;SDS011;11070;51.336;12.340;2022-11-15T08:11:54;9.27;;;8.25;;
2061;SDS011;11070;51.336;12.340;2022-11-15T08:14:19;8.53;;;7.50;;
2061;SDS011;11070;51.336;12.340;2022-11-15T08:16:56;9.80;;;7.90;;
2061;SDS011;11070;51.336;12.340;2022-11-15T08:19:22;8.80;;;7.90;;
2061;SDS011;11070;51.336;12.340;2022-11-15T08:21:48;9.10;;;8.15;;
2061;SDS011;11070;51.336;12.340;2022-11-15T08:24:14;9.50;;;8.47;;
2061;SDS011;11070;51.336;12.340;2022-11-15T08:26:40;8.77;;;7.90;;
2061;SDS011;11070;51.336;12.340;2022-11-15T08:29:06;8.70;;;7.63;;
2061;SDS011;11070;51.336;12.340;2022-11-15T08:31:34;10.02;;;8.13;;
2061;SDS011;11070;51.336;12.340;2022-11-15T08:34:01;9.07;;;7.60;;
2061;SDS011;11070;51.336;12.340;2022-11-15T08:36:28;8.80;;;7.90;;
2061;SDS011;11070;51.336;12.340;2022-11-15T08:38:55;11.05;;;7.85;;
2061;SDS011;11070;51.336;12.340;2022-11-15T08:41:25;9.90;;;7.68;;
2061;SDS011;11070;51.336;12.340;2022-11-15T08:43:56;8.80;;;7.95;;
2061;SDS011;11070;51.336;12.340;2022-11-15T08:49:20;8.23;;;7.05;;
2061;SDS011;11070;51.336;12.340;2022-11-15T08:51:50;9.43;;;7.72;;
2061;SDS011;11070;51.336;12.340;2022-11-15T08:54:16;7.30;;;6.60;;
2061;SDS011;11070;51.336;12.340;2022-11-15T08:56:42;8.65;;;7.45;;
2061;SDS011;11070;51.336;12.340;2022-11-15T08:59:08;7.93;;;7.13;;
2061;SDS011;11070;51.336;12.340;2022-11-15T09:01:34;9.80;;;8.80;;
2061;SDS011;11070;51.336;12.340;2022-11-15T09:04:00;8.80;;;7.27;;
2061;SDS011;11070;51.336;12.340;2022-11-15T09:06:26;7.53;;;6.90;;
2061;SDS011;11070;51.336;12.340;2022-11-15T09:08:52;8.40;;;7.35;;
2061;SDS011;11070;51.336;12.340;2022-11-15T09:11:18;7.80;;;7.10;;
2061;SDS011;11070;51.336;12.340;2022-11-15T09:13:46;7.30;;;6.60;;
2061;SDS011;11070;51.336;12.340;2022-11-15T09:16:12;9.43;;;6.33;;
2061;SDS011;11070;51.336;12.340;2022-11-15T09:18:40;9.65;;;6.20;;
2061;SDS011;11070;51.336;12.340;2022-11-15T09:21:06;6.93;;;6.23;;
2061;SDS011;11070;51.336;12.340;2022-11-15T09:23:33;10.20;;;5.80;;
2061;SDS011;11070;51.336;12.340;2022-11-15T09:26:01;6.40;;;5.80;;
2061;SDS011;11070;51.336;12.340;2022-11-15T09:28:29;7.50;;;6.07;;
2061;SDS011;11070;51.336;12.340;2022-11-15T09:30:56;5.60;;;5.10;;
2061;SDS011;11070;51.336;12.340;2022-11-15T09:33:30;5.33;;;4.93;;
2061;SDS011;11070;51.336;12.340;2022-11-15T09:36:00;6.33;;;5.37;;
2061;SDS011;11070;51.336;12.340;2022-11-15T09:38:29;6.03;;;5.43;;
2061;SDS011;11070;51.336;12.340;2022-11-15T09:43:53;5.70;;;5.23;;
2061;SDS011;11070;51.336;12.340;2022-11-15T09:49:12;5.60;;;5.10;;
2061;SDS011;11070;51.336;12.340;2022-11-15T09:51:42;5.87;;;5.23;;
2061;SDS011;11070;51.336;12.340;2022-11-15T09:56:46;5.67;;;5.17;;
2061;SDS011;11070;51.336;12.340;2022-11-15T10:04:41;5.43;;;4.93;;
2061;SDS011;11070;51.336;12.340;2022-11-15T10:12:34;5.90;;;5.30;;
2061;SDS011;11070;51.336;12.340;2022-11-15T10:15:03;10.00;;;5.40;;
2061;SDS011;11070;51.336;12.340;2022-11-15T10:20:22;5.67;;;5.17;;
2061;SDS011;11070;51.336;12.340;2022-11-15T10:22:51;5.70;;;5.20;;
2061;SDS011;11070;51.336;12.340;2022-11-15T10:25:31;5.37;;;4.77;;
2061;SDS011;11070;51.336;12.340;2022-11-15T10:30:50;4.77;;;4.37;;
2061;SDS011;11070;51.336;12.340;2022-11-15T10:33:38;4.93;;;4.40;;
2061;SDS011;11070;51.336;12.340;2022-11-15T10:36:14;5.63;;;5.17;;
2061;SDS011;11070;51.336;12.340;2022-11-15T10:41:31;5.00;;;4.63;;
2061;SDS011;11070;51.336;12.340;2022-11-15T10:49:22;5.40;;;4.90;;
2061;SDS011;11070;51.336;12.340;2022-11-15T10:51:57;4.90;;;4.47;;
2061;SDS011;11070;51.336;12.340;2022-11-15T10:57:11;5.10;;;4.67;;
2061;SDS011;11070;51.336;12.340;2022-11-15T10:59:51;10.50;;;4.70;;
2061;SDS011;11070;51.336;12.340;2022-11-15T11:05:04;5.03;;;4.50;;
2061;SDS011;11070;51.336;12.340;2022-11-15T11:07:37;5.03;;;4.60;;
2061;SDS011;11070;51.336;12.340;2022-11-15T11:10:05;4.90;;;4.50;;
2061;SDS011;11070;51.336;12.340;2022-11-15T11:12:44;5.07;;;4.60;;
2061;SDS011;11070;51.336;12.340;2022-11-15T11:15:12;4.77;;;3.83;;
2061;SDS011;11070;51.336;12.340;2022-11-15T11:17:57;4.40;;;4.10;;
2061;SDS011;11070;51.336;12.340;2022-11-15T11:20:48;5.43;;;4.30;;
2061;SDS011;11070;51.336;12.340;2022-11-15T11:35:04;4.40;;;4.00;;
2061;SDS011;11070;51.336;12.340;2022-11-15T11:40:29;4.00;;;3.77;;
2061;SDS011;11070;51.336;12.340;2022-11-15T11:51:54;5.27;;;4.80;;
2061;SDS011;11070;51.336;12.340;2022-11-15T11:57:44;8.00;;;4.40;;
2061;SDS011;11070;51.336;12.340;2022-11-15T12:00:30;5.50;;;3.80;;
2061;SDS011;11070;51.336;12.340;2022-11-15T12:05:54;4.30;;;3.90;;
2061;SDS011;11070;51.336;12.340;2022-11-15T12:11:15;4.40;;;4.10;;
2061;SDS011;11070;51.336;12.340;2022-11-15T12:14:04;3.60;;;3.30;;
2061;SDS011;11070;51.336;12.340;2022-11-15T12:16:36;3.80;;;3.50;;
2061;SDS011;11070;51.336;12.340;2022-11-15T12:19:07;4.23;;;3.93;;
2061;SDS011;11070;51.336;12.340;2022-11-15T12:29:50;3.70;;;3.40;;
2061;SDS011;11070;51.336;12.340;2022-11-15T12:32:32;5.13;;;3.83;;
2061;SDS011;11070;51.336;12.340;2022-11-15T12:35:05;4.37;;;4.07;;
2061;SDS011;11070;51.336;12.340;2022-11-15T12:37:50;3.50;;;3.20;;
2061;SDS011;11070;51.336;12.340;2022-11-15T12:40:24;5.70;;;3.53;;
2061;SDS011;11070;51.336;12.340;2022-11-15T12:43:04;4.07;;;3.80;;
2061;SDS011;11070;51.336;12.340;2022-11-15T12:50:56;3.30;;;3.10;;
2061;SDS011;11070;51.336;12.340;2022-11-15T12:53:30;2.70;;;2.60;;
2061;SDS011;11070;51.336;12.340;2022-11-15T12:58:45;3.17;;;2.87;;
2061;SDS011;11070;51.336;12.340;2022-11-15T13:12:03;3.20;;;3.00;;
2061;SDS011;11070;51.336;12.340;2022-11-15T13:14:51;5.00;;;3.00;;
2061;SDS011;11070;51.336;12.340;2022-11-15T13:17:51;3.40;;;2.63;;
2061;SDS011;11070;51.336;12.340;2022-11-15T13:20:29;3.30;;;3.10;;
2061;SDS011;11070;51.336;12.340;2022-11-15T13:23:06;3.70;;;3.10;;
2061;SDS011;11070;51.336;12.340;2022-11-15T13:31:01;3.70;;;2.93;;
2061;SDS011;11070;51.336;12.340;2022-11-15T13:33:45;3.17;;;2.93;;
2061;SDS011;11070;51.336;12.340;2022-11-15T13:36:13;5.83;;;2.77;;
2061;SDS011;11070;51.336;12.340;2022-11-15T13:38:45;2.73;;;2.53;;
2061;SDS011;11070;51.336;12.340;2022-11-15T13:41:24;3.93;;;3.20;;
2061;SDS011;11070;51.336;12.340;2022-11-15T13:43:53;3.37;;;3.07;;
2061;SDS011;11070;51.336;12.340;2022-11-15T13:46:25;2.70;;;2.50;;
2061;SDS011;11070;51.336;12.340;2022-11-15T13:51:48;3.37;;;3.10;;
2061;SDS011;11070;51.336;12.340;2022-11-15T13:54:20;3.83;;;3.23;;
2061;SDS011;11070;51.336;12.340;2022-11-15T13:56:55;4.37;;;3.03;;
2061;SDS011;11070;51.336;12.340;2022-11-15T13:59:30;3.93;;;2.97;;
2061;SDS011;11070;51.336;12.340;2022-11-15T14:02:01;4.03;;;2.60;;
2061;SDS011;11070;51.336;12.340;2022-11-15T14:04:47;6.70;;;4.03;;
2061;SDS011;11070;51.336;12.340;2022-11-15T14:07:18;3.00;;;2.80;;
2061;SDS011;11070;51.336;12.340;2022-11-15T14:09:47;6.70;;;4.20;;
2061;SDS011;11070;51.336;12.340;2022-11-15T14:12:33;7.20;;;3.30;;
2061;SDS011;11070;51.336;12.340;2022-11-15T14:17:56;3.53;;;3.20;;
2061;SDS011;11070;51.336;12.340;2022-11-15T14:20:31;3.70;;;3.33;;
2061;SDS011;11070;51.336;12.340;2022-11-15T14:23:00;3.13;;;2.93;;
2061;SDS011;11070;51.336;12.340;2022-11-15T14:25:33;3.73;;;3.43;;
2061;SDS011;11070;51.336;12.340;2022-11-15T14:28:14;4.43;;;3.87;;
2061;SDS011;11070;51.336;12.340;2022-11-15T14:30:55;5.33;;;4.30;;
2061;SDS011;11070;51.336;12.340;2022-11-15T14:36:06;4.40;;;4.00;;
2061;SDS011;11070;51.336;12.340;2022-11-15T14:38:44;8.10;;;4.17;;
2061;SDS011;11070;51.336;12.340;2022-11-15T14:41:24;4.33;;;3.93;;
2061;SDS011;11070;51.336;12.340;2022-11-15T14:44:03;6.18;;;4.22;;
2061;SDS011;11070;51.336;12.340;2022-11-15T14:46:44;5.70;;;4.15;;
2061;SDS011;11070;51.336;12.340;2022-11-15T14:49:16;6.37;;;4.90;;
2061;SDS011;11070;51.336;12.340;2022-11-15T14:51:43;5.72;;;4.55;;
2061;SDS011;11070;51.336;12.340;2022-11-15T14:54:10;7.30;;;4.53;;
2061;SDS011;11070;51.336;12.340;2022-11-15T14:56:40;6.50;;;4.87;;
2061;SDS011;11070;51.336;12.340;2022-11-15T14:59:07;8.07;;;5.33;;
2061;SDS011;11070;51.336;12.340;2022-11-15T15:01:34;6.57;;;5.87;;
2061;SDS011;11070;51.336;12.340;2022-11-15T15:04:00;5.00;;;4.57;;
2061;SDS011;11070;51.336;12.340;2022-11-15T15:06:27;6.95;;;4.57;;
2061;SDS011;11070;51.336;12.340;2022-11-15T15:08:55;5.72;;;5.05;;
2061;SDS011;11070;51.336;12.340;2022-11-15T15:11:26;5.15;;;4.70;;
2061;SDS011;11070;51.336;12.340;2022-11-15T15:13:55;7.18;;;5.07;;
2061;SDS011;11070;51.336;12.340;2022-11-15T15:16:26;6.85;;;5.35;;
2061;SDS011;11070;51.336;12.340;2022-11-15T15:18:52;5.65;;;5.05;;
2061;SDS011;11070;51.336;12.340;2022-11-15T15:21:25;6.90;;;4.90;;
2061;SDS011;11070;51.336;12.340;2022-11-15T15:23:52;5.78;;;5.18;;
2061;SDS011;11070;51.336;12.340;2022-11-15T15:26:22;6.32;;;5.25;;
2061;SDS011;11070;51.336;12.340;2022-11-15T15:28:48;6.90;;;5.40;;
2061;SDS011;11070;51.336;12.340;2022-11-15T15:31:16;6.07;;;5.20;;
2061;SDS011;11070;51.336;12.340;2022-11-15T15:33:43;5.72;;;5.22;;
2061;SDS011;11070;51.336;12.340;2022-11-15T15:36:11;6.63;;;5.90;;
2061;SDS011;11070;51.336;12.340;2022-11-15T15:38:43;5.78;;;5.28;;
2061;SDS011;11070;51.336;12.340;2022-11-15T15:41:13;6.95;;;5.85;;
2061;SDS011;11070;51.336;12.340;2022-11-15T15:43:40;6.20;;;5.68;;
2061;SDS011;11070;51.336;12.340;2022-11-15T15:46:14;7.07;;;6.38;;
2061;SDS011;11070;51.336;12.340;2022-11-15T15:48:41;10.90;;;7.10;;
2061;SDS011;11070;51.336;12.340;2022-11-15T15:51:08;9.05;;;7.80;;
2061;SDS011;11070;51.336;12.340;2022-11-15T15:53:35;9.45;;;7.15;;
2061;SDS011;11070;51.336;12.340;2022-11-15T15:56:01;9.45;;;7.65;;
2061;SDS011;11070;51.336;12.340;2022-11-15T15:58:28;16.80;;;10.23;;
2061;SDS011;11070;51.336;12.340;2022-11-15T16:00:55;15.80;;;10.15;;
2061;SDS011;11070;51.336;12.340;2022-11-15T16:03:20;14.20;;;7.70;;
2061;SDS011;11070;51.336;12.340;2022-11-15T16:05:49;12.07;;;7.38;;
2061;SDS011;11070;51.336;12.340;2022-11-15T16:11:06;11.80;;;8.80;;
2061;SDS011;11070;51.336;12.340;2022-11-15T16:13:34;14.48;;;9.32;;
2061;SDS011;11070;51.336;12.340;2022-11-15T16:16:00;14.23;;;9.33;;
2061;SDS011;11070;51.336;12.340;2022-11-15T16:18:29;20.73;;;10.45;;
2061;SDS011;11070;51.336;12.340;2022-11-15T16:20:57;12.88;;;9.32;;
2061;SDS011;11070;51.336;12.340;2022-11-15T16:23:32;16.80;;;9.57;;
2061;SDS011;11070;51.336;12.340;2022-11-15T16:25:59;13.63;;;10.05;;
2061;SDS011;11070;51.336;12.340;2022-11-15T16:28:31;15.68;;;10.38;;
2061;SDS011;11070;51.336;12.340;2022-11-15T16:31:05;13.60;;;9.68;;
2061;SDS011;11070;51.336;12.340;2022-11-15T16:36:25;18.17;;;10.38;;
2061;SDS011;11070;51.336;12.340;2022-11-15T16:38:54;15.50;;;10.65;;
2061;SDS011;11070;51.336;12.340;2022-11-15T16:53:15;18.52;;;11.80;;
2061;SDS011;11070;51.336;12.340;2022-11-15T17:07:42;14.75;;;10.15;;
2061;SDS011;11070;51.336;12.340;2022-11-15T17:13:40;15.15;;;10.55;;
2061;SDS011;11070;51.336;12.340;2022-11-15T17:16:36;17.80;;;12.95;;
2061;SDS011;11070;51.336;12.340;2022-11-15T17:37:31;22.33;;;15.75;;
2061;SDS011;11070;51.336;12.340;2022-11-15T17:39:57;15.93;;;13.20;;
2061;SDS011;11070;51.336;12.340;2022-11-15T17:42:28;17.80;;;12.93;;
2061;SDS011;11070;51.336;12.340;2022-11-15T17:44:54;17.27;;;12.13;;
2061;SDS011;11070;51.336;12.340;2022-11-15T17:47:21;17.77;;;13.07;;
2061;SDS011;11070;51.336;12.340;2022-11-15T17:49:54;16.17;;;12.85;;
2061;SDS011;11070;51.336;12.340;2022-11-15T17:52:21;17.30;;;13.27;;
2061;SDS011;11070;51.336;12.340;2022-11-15T17:54:47;20.13;;;14.10;;
2061;SDS011;11070;51.336;12.340;2022-11-15T17:57:14;20.15;;;14.55;;
2061;SDS011;11070;51.336;12.340;2022-11-15T17:59:40;19.63;;;15.63;;
2061;SDS011;11070;51.336;12.340;2022-11-15T18:02:08;26.52;;;19.05;;
2061;SDS011;11070;51.336;12.340;2022-11-15T18:04:34;34.80;;;26.52;;
2061;SDS011;11070;51.336;12.340;2022-11-15T18:07:00;28.98;;;23.80;;
2061;SDS011;11070;51.336;12.340;2022-11-15T18:09:27;28.50;;;20.33;;